Time;durP1;ratioP1;P1;durP2;ratioP2;P2;SDS_P1;SDS_P2;PMS_P1;PMS_P2;Temp;Humidity;BMP_temperature;BMP_pressure;BME280_temperature;BME280_humidity;BME280_pressure;Samples;Min_cycle;Max_cycle;Signal;HPM_P1;HPM_P2
2022/07/31 06:33:11;;;;;;;;;;;;;;;19.70;55.57;100075.75;1087411;46;20092;-75
2022/07/31 06:34:15;;;;;;;;;;;;;;;19.69;55.84;100079.50;1084249;54;19946;-75
2022/07/31 06:35:19;;;;;;;;;;;;;;;19.67;55.78;100073.44;1084951;39;20667;-75
2022/07/31 06:36:21;;;;;;;;;;;;;;;19.70;55.88;100066.75;1084052;54;19973;-75
2022/07/31 06:37:24;;;;;;;;;;;;;;;19.90;54.97;100073.09;1084186;54;19947;-74
2022/07/31 06:38:29;;;;;;;;;;;;;;;20.05;54.73;100077.53;1084248;54;19962;-74
2022/07/31 06:39:31;;;;;;;;;;;;;;;20.14;54.39;100080.88;1084155;54;20444;-76
2022/07/31 06:40:34;;;;;;;;;;;;;;;20.02;54.90;100069.78;1083765;54;20042;-75
2022/07/31 06:41:46;;;;;;;;;;;;;;;20.00;55.04;100066.44;1083471;54;19950;-73
2022/07/31 06:42:50;;;;;;;;;;;;;;;19.99;54.87;100075.63;1083681;54;19947;-74
2022/07/31 06:43:51;;;;;;;;;;;;;;;20.07;54.83;100076.28;1083948;54;19947;-73
2022/07/31 06:44:55;;;;;;;;;;;;;;;20.10;54.64;100070.44;1084199;54;19939;-75
2022/07/31 06:45:59;;;;;;;;;;;;;;;20.18;54.91;100071.28;1084061;54;19942;-74
2022/07/31 06:47:00;;;;;;;;;;;;;;;20.34;54.40;100070.88;1084009;54;19950;-75
2022/07/31 06:48:04;;;;;;;;;;;;;;;20.39;54.24;100071.09;1083658;54;19946;-75
2022/07/31 06:49:05;;;;;;;;;;;;;;;20.50;54.03;100057.94;1083985;54;19953;-76
2022/07/31 06:50:12;;;;;;;;;;;;;;;20.49;53.93;100072.53;1084455;39;20492;-74
2022/07/31 06:51:13;;;;;;;;;;;;;;;20.52;53.96;100066.69;1083727;54;19950;-74
2022/07/31 06:52:18;;;;;;;;;;;;;;;20.47;54.01;100069.19;1083988;47;19939;-74
2022/07/31 06:53:21;;;;;;;;;;;;;;;20.62;53.59;100072.53;1083794;54;19946;-76
2022/07/31 06:54:22;;;;;;;;;;;;;;;20.72;53.73;100074.81;1083947;54;19950;-74
2022/07/31 06:55:26;;;;;;;;;;;;;;;20.80;53.17;100065.63;1084442;39;20364;-76
2022/07/31 06:56:27;;;;;;;;;;;;;;;20.93;53.16;100067.47;1084438;54;19954;-75
2022/07/31 06:57:31;;;;;;;;;;;;;;;20.98;53.31;100065.78;1084104;54;19962;-74
2022/07/31 06:58:32;;;;;;;;;;;;;;;21.02;53.03;100064.34;1083568;54;19951;-76
2022/07/31 06:59:36;;;;;;;;;;;;;;;21.14;52.72;100056.34;1084244;31;20424;-74
2022/07/31 07:00:40;;;;;;;;;;;;;;;21.18;52.54;100054.88;1083903;54;19953;-74
2022/07/31 07:01:41;;;;;;;;;;;;;;;21.15;52.83;100054.47;1084091;54;20026;-74
2022/07/31 07:02:44;;;;;;;;;;;;;;;21.23;52.76;100064.25;1084106;54;19954;-72
2022/07/31 07:03:46;;;;;;;;;;;;;;;21.31;52.71;100059.44;1084141;54;19947;-74
2022/07/31 07:04:49;;;;;;;;;;;;;;;21.34;52.54;100058.16;1084020;54;19947;-75
2022/07/31 07:05:53;;;;;;;;;;;;;;;21.35;52.44;100057.09;1084294;54;20417;-74
2022/07/31 07:06:57;;;;;;;;;;;;;;;21.32;52.26;100061.09;1083994;54;19950;-74
2022/07/31 07:08:01;;;;;;;;;;;;;;;21.33;52.44;100059.19;1084115;54;19938;-73
2022/07/31 07:09:02;;;;;;;;;;;;;;;21.22;52.54;100057.16;1083976;54;19945;-74
2022/07/31 07:10:07;;;;;;;;;;;;;;;21.12;52.56;100058.44;1084043;54;19951;-75
2022/07/31 07:11:08;;;;;;;;;;;;;;;21.16;52.93;100062.41;1084128;47;20449;-75
2022/07/31 07:12:12;;;;;;;;;;;;;;;21.11;53.00;100058.66;1084179;54;20760;-75
2022/07/31 07:13:13;;;;;;;;;;;;;;;21.11;52.69;100062.19;1084204;54;20441;-76
2022/07/31 07:14:16;;;;;;;;;;;;;;;21.12;52.92;100061.16;1084046;54;19966;-75
2022/07/31 07:15:20;;;;;;;;;;;;;;;21.08;52.81;100059.94;1084289;54;19972;-75
2022/07/31 07:16:21;;;;;;;;;;;;;;;21.18;52.76;100059.47;1083788;54;19977;-75
2022/07/31 07:17:25;;;;;;;;;;;;;;;21.25;52.74;100056.72;1083378;54;20464;-73
2022/07/31 07:18:26;;;;;;;;;;;;;;;21.30;52.46;100057.75;1083537;54;19954;-73
2022/07/31 07:19:30;;;;;;;;;;;;;;;21.46;52.27;100055.59;1083740;54;19950;-74
2022/07/31 07:20:31;;;;;;;;;;;;;;;21.57;51.97;100054.09;1084063;47;19939;-75
2022/07/31 07:21:38;;;;;;;;;;;;;;;21.69;51.93;100056.97;1083901;54;19947;-75
2022/07/31 07:22:39;;;;;;;;;;;;;;;21.72;51.55;100051.94;1083781;54;19947;-72
2022/07/31 07:23:43;;;;;;;;;;;;;;;21.78;51.06;100056.50;1083728;54;19970;-76
2022/07/31 07:24:44;;;;;;;;;;;;;;;21.86;50.93;100054.59;1084082;54;19950;-76
2022/07/31 07:25:48;;;;;;;;;;;;;;;21.92;50.52;100054.53;1084154;54;19963;-76
2022/07/31 07:26:52;;;;;;;;;;;;;;;21.98;50.49;100050.09;1084405;54;19950;-74
2022/07/31 07:27:55;;;;;;;;;;;;;;;21.95;50.35;100051.38;1083791;47;19962;-72
2022/07/31 07:28:59;;;;;;;;;;;;;;;21.87;50.56;100056.25;1083767;54;19974;-76
2022/07/31 07:30:02;;;;;;;;;;;;;;;21.97;50.69;100052.00;1084099;54;20879;-75
2022/07/31 07:31:03;;;;;;;;;;;;;;;22.01;50.33;100052.38;1084351;39;20356;-74
2022/07/31 07:32:08;;;;;;;;;;;;;;;22.01;50.24;100054.28;1083463;54;19947;-73
2022/07/31 07:33:09;;;;;;;;;;;;;;;22.04;50.20;100056.53;1083658;39;20380;-73
2022/07/31 07:34:13;;;;;;;;;;;;;;;22.07;50.34;100048.75;1083082;54;19950;-73
2022/07/31 07:35:15;;;;;;;;;;;;;;;21.90;50.22;100050.34;1082852;54;19950;-73
2022/07/31 07:36:19;;;;;;;;;;;;;;;21.92;50.52;100053.69;1083597;54;19954;-75
2022/07/31 07:37:25;;;;;;;;;;;;;;;21.83;51.22;100055.84;1083448;54;19946;-74
2022/07/31 07:38:26;;;;;;;;;;;;;;;21.93;50.75;100058.09;1085087;54;19962;-76
2022/07/31 07:39:31;;;;;;;;;;;;;;;22.00;50.76;100055.31;1085749;54;20436;-76
2022/07/31 07:40:32;;;;;;;;;;;;;;;22.04;50.87;100051.09;1085432;54;19945;-79
2022/07/31 07:41:37;;;;;;;;;;;;;;;22.04;50.75;100051.09;1085269;54;19950;-76
2022/07/31 07:42:41;;;;;;;;;;;;;;;22.10;50.64;100048.31;1086583;39;20528;-77
2022/07/31 07:43:42;;;;;;;;;;;;;;;22.12;50.55;100048.09;1085253;47;19939;-76
2022/07/31 07:44:46;;;;;;;;;;;;;;;22.14;50.51;100046.00;1084928;46;19954;-76
2022/07/31 07:45:47;;;;;;;;;;;;;;;22.17;50.67;100051.00;1084035;54;19974;-76
2022/07/31 07:46:51;;;;;;;;;;;;;;;22.18;50.92;100041.78;1084342;54;20049;-74
2022/07/31 07:47:52;;;;;;;;;;;;;;;22.22;50.66;100051.16;1083865;54;19947;-75
2022/07/31 07:48:56;;;;;;;;;;;;;;;22.24;50.22;100045.50;1085624;39;20564;-76
2022/07/31 07:49:57;;;;;;;;;;;;;;;22.25;50.38;100049.88;1084435;54;19947;-76
2022/07/31 07:51:00;;;;;;;;;;;;;;;22.28;50.02;100047.56;1084050;54;19954;-77
2022/07/31 07:52:02;;;;;;;;;;;;;;;22.36;50.10;100042.91;1085375;39;20368;-77
2022/07/31 07:53:11;;;;;;;;;;;;;;;22.33;50.22;100054.22;1084048;54;19950;-79
2022/07/31 07:54:14;;;;;;;;;;;;;;;22.41;49.81;100048.53;1085292;39;20728;-77
2022/07/31 07:55:18;;;;;;;;;;;;;;;22.48;49.86;100045.75;1085482;39;20333;-76
2022/07/31 07:56:20;;;;;;;;;;;;;;;22.47;50.03;100044.94;1087230;54;19946;-78
2022/07/31 07:57:23;;;;;;;;;;;;;;;22.48;49.97;100049.31;1087288;54;19947;-77
2022/07/31 07:58:25;;;;;;;;;;;;;;;22.39;49.83;100051.44;1087537;54;19958;-75
2022/07/31 07:59:28;;;;;;;;;;;;;;;22.36;49.73;100048.34;1087434;54;19958;-77
2022/07/31 08:00:29;;;;;;;;;;;;;;;22.48;48.97;100052.03;1087459;54;19946;-74
2022/07/31 08:01:33;;;;;;;;;;;;;;;22.50;49.27;100043.63;1088123;54;20010;-75
2022/07/31 08:02:34;;;;;;;;;;;;;;;22.54;49.26;100044.84;1088780;47;19939;-74
2022/07/31 08:03:38;;;;;;;;;;;;;;;22.55;48.79;100050.09;1088217;47;19949;-74
2022/07/31 08:04:39;;;;;;;;;;;;;;;22.54;48.36;100040.25;1089211;47;19962;-75
2022/07/31 08:05:43;;;;;;;;;;;;;;;22.61;49.14;100045.63;1087590;54;19962;-76
2022/07/31 08:06:47;;;;;;;;;;;;;;;22.65;48.95;100044.13;1087672;54;19946;-74
2022/07/31 08:07:48;;;;;;;;;;;;;;;22.65;48.67;100049.56;1087784;54;19970;-74
2022/07/31 08:08:54;;;;;;;;;;;;;;;22.71;48.52;100045.97;1087530;54;19977;-75
2022/07/31 08:09:55;;;;;;;;;;;;;;;22.80;48.03;100051.09;1087770;54;19947;-74
2022/07/31 08:11:00;;;;;;;;;;;;;;;22.87;47.98;100041.78;1087677;54;19994;-74
2022/07/31 08:12:01;;;;;;;;;;;;;;;22.95;47.86;100042.56;1087580;54;19954;-75
2022/07/31 08:13:05;;;;;;;;;;;;;;;22.97;47.89;100038.56;1088724;39;20234;-76
2022/07/31 08:14:06;;;;;;;;;;;;;;;22.97;47.87;100037.69;1087220;54;19949;-75
2022/07/31 08:15:10;;;;;;;;;;;;;;;22.89;47.80;100039.66;1087415;54;20473;-74
2022/07/31 08:16:11;;;;;;;;;;;;;;;22.90;47.41;100038.63;1087474;54;19950;-75
2022/07/31 08:17:15;;;;;;;;;;;;;;;22.99;46.89;100041.03;1089588;39;20645;-75
2022/07/31 08:18:16;;;;;;;;;;;;;;;23.07;46.72;100032.56;1087303;54;19950;-75
2022/07/31 08:19:20;;;;;;;;;;;;;;;23.14;45.98;100035.19;1086691;54;19954;-76
2022/07/31 08:20:21;;;;;;;;;;;;;;;23.21;45.62;100035.97;1086419;47;19947;-76
2022/07/31 08:21:25;;;;;;;;;;;;;;;23.33;45.43;100031.44;1086555;54;19998;-75
2022/07/31 08:22:26;;;;;;;;;;;;;;;23.39;44.50;100024.22;1087033;54;19957;-74
2022/07/31 08:23:30;;;;;;;;;;;;;;;23.40;43.80;100023.16;1088221;39;20742;-74
2022/07/31 08:24:34;;;;;;;;;;;;;;;23.42;43.58;100031.97;1087288;54;19946;-72
2022/07/31 08:25:38;;;;;;;;;;;;;;;23.49;44.00;100027.25;1087781;54;19974;-74
2022/07/31 08:27:57;;;;;;;;;;;;;;;23.70;43.93;100027.78;1088425;54;19927;-75
2022/07/31 08:29:02;;;;;;;;;;;;;;;23.81;44.20;100021.50;1089322;46;19942;-75
2022/07/31 08:30:04;;;;;;;;;;;;;;;23.92;43.27;100024.50;1090521;39;20125;-76
2022/07/31 08:31:15;;;;;;;;;;;;;;;24.04;43.11;100025.41;1087690;54;20443;-79
2022/07/31 08:32:16;;;;;;;;;;;;;;;24.05;42.80;100021.63;1088460;54;19943;-77
2022/07/31 08:33:20;;;;;;;;;;;;;;;23.99;42.12;100020.66;1090185;39;20560;-80
2022/07/31 08:34:22;;;;;;;;;;;;;;;23.94;42.54;100022.38;1087773;54;19950;-78
2022/07/31 08:35:26;;;;;;;;;;;;;;;23.99;42.08;100017.09;1086735;46;19938;-76
2022/07/31 08:36:27;;;;;;;;;;;;;;;24.03;41.91;100020.19;1085931;54;19938;-79
2022/07/31 08:37:30;;;;;;;;;;;;;;;24.09;42.08;100021.97;1085481;54;19957;-77
2022/07/31 08:38:34;;;;;;;;;;;;;;;24.18;41.54;100011.56;1085708;54;19957;-76
2022/07/31 08:39:38;;;;;;;;;;;;;;;24.34;41.80;100013.56;1085938;54;19946;-77
2022/07/31 08:40:42;;;;;;;;;;;;;;;24.49;42.22;100014.97;1085309;54;19954;-77
2022/07/31 08:41:43;;;;;;;;;;;;;;;24.57;41.74;100007.28;1085384;54;19973;-77
2022/07/31 08:42:47;;;;;;;;;;;;;;;24.80;41.67;100004.78;1085573;54;19994;-77
2022/07/31 08:43:49;;;;;;;;;;;;;;;25.06;41.06;100001.50;1087945;54;19942;-78
2022/07/31 08:44:52;;;;;;;;;;;;;;;25.33;40.96;99997.38;1087860;54;19942;-77
2022/07/31 08:45:53;;;;;;;;;;;;;;;25.59;40.31;100001.47;1087690;54;19942;-76
2022/07/31 08:46:58;;;;;;;;;;;;;;;25.82;39.74;100005.13;1087875;54;19942;-76
2022/07/31 08:48:00;;;;;;;;;;;;;;;26.03;39.47;100009.03;1088024;54;20011;-77
2022/07/31 08:49:04;;;;;;;;;;;;;;;26.17;38.55;100001.34;1088019;54;19927;-76
2022/07/31 08:50:06;;;;;;;;;;;;;;;26.08;37.99;100006.41;1087664;54;19950;-77
2022/07/31 08:51:12;;;;;;;;;;;;;;;26.27;38.60;100003.44;1087517;54;19951;-77
2022/07/31 08:52:16;;;;;;;;;;;;;;;26.45;38.05;100005.09;1087710;54;20520;-76
2022/07/31 08:53:21;;;;;;;;;;;;;;;26.39;36.88;100003.34;1087760;54;20288;-75
2022/07/31 08:54:24;;;;;;;;;;;;;;;26.58;37.59;100004.72;1087689;54;19943;-78
2022/07/31 08:55:32;;;;;;;;;;;;;;;26.44;37.00;100000.69;1087751;54;19974;-76
2022/07/31 08:56:34;;;;;;;;;;;;;;;26.53;37.41;99998.34;1087553;54;19942;-76
2022/07/31 08:57:38;;;;;;;;;;;;;;;26.71;37.30;99998.03;1087562;54;19946;-76
2022/07/31 08:58:39;;;;;;;;;;;;;;;26.84;37.14;99996.88;1088514;46;20006;-76
2022/07/31 08:59:43;;;;;;;;;;;;;;;26.99;36.55;99995.41;1087476;54;19942;-79
2022/07/31 09:00:44;;;;;;;;;;;;;;;27.14;36.68;99992.03;1087242;54;19950;-77
2022/07/31 09:01:49;;;;;;;;;;;;;;;27.02;34.84;100001.22;1087543;54;20517;-76
2022/07/31 09:02:53;;;;;;;;;;;;;;;26.99;35.25;99998.16;1087793;54;19950;-76
2022/07/31 09:03:55;;;;;;;;;;;;;;;27.12;35.81;99994.19;1090819;46;19959;-76
2022/07/31 09:04:59;;;;;;;;;;;;;;;27.15;35.42;99997.25;1087471;54;19943;-77
2022/07/31 09:06:03;;;;;;;;;;;;;;;26.83;35.17;99997.94;1087415;54;19954;-77
2022/07/31 09:07:04;;;;;;;;;;;;;;;26.92;35.62;99993.69;1089361;39;20323;-79
2022/07/31 09:08:08;;;;;;;;;;;;;;;27.12;35.49;99995.00;1087464;54;19951;-78
2022/07/31 09:09:09;;;;;;;;;;;;;;;27.24;35.56;99998.47;1087537;54;19951;-77
2022/07/31 09:10:22;;;;;;;;;;;;;;;27.30;35.85;99993.03;1087595;54;19954;-77
2022/07/31 09:11:28;;;;;;;;;;;;;;;27.38;34.50;99987.09;1087341;54;20523;-77
2022/07/31 09:12:30;;;;;;;;;;;;;;;27.54;35.16;99986.19;1087502;54;19975;-78
2022/07/31 09:13:34;;;;;;;;;;;;;;;27.69;34.32;99987.41;1087509;54;19970;-78
2022/07/31 09:14:35;;;;;;;;;;;;;;;27.48;34.41;99991.88;1087630;54;19949;-76
2022/07/31 09:15:39;;;;;;;;;;;;;;;27.62;34.10;99997.78;1087454;54;19959;-76
2022/07/31 09:16:44;;;;;;;;;;;;;;;27.95;34.21;99991.22;1087452;54;20528;-78
2022/07/31 09:17:48;;;;;;;;;;;;;;;27.99;33.75;99995.09;1087240;54;20004;-76
2022/07/31 09:18:55;;;;;;;;;;;;;;;27.78;34.24;99990.50;1087261;54;19956;-77
2022/07/31 09:19:59;;;;;;;;;;;;;;;27.55;34.44;99996.09;1087618;54;19939;-78
2022/07/31 09:21:03;;;;;;;;;;;;;;;27.44;34.37;99991.56;1087765;54;19938;-79
2022/07/31 09:22:05;;;;;;;;;;;;;;;27.87;34.37;99989.75;1087806;46;19950;-80
2022/07/31 09:23:10;;;;;;;;;;;;;;;27.86;34.34;99984.53;1087974;54;20499;-79
2022/07/31 09:24:12;;;;;;;;;;;;;;;27.96;33.85;99986.56;1088039;54;19953;-79
2022/07/31 09:25:17;;;;;;;;;;;;;;;28.27;33.94;99984.06;1088198;46;19946;-78
2022/07/31 09:26:19;;;;;;;;;;;;;;;28.49;33.89;99972.91;1087836;54;19966;-78
2022/07/31 09:27:29;;;;;;;;;;;;;;;28.51;33.13;99975.41;1088002;54;19970;-79
2022/07/31 09:28:32;;;;;;;;;;;;;;;28.68;32.73;99965.06;1088124;46;19975;-79
2022/07/31 09:29:37;;;;;;;;;;;;;;;28.91;33.11;99968.47;1088015;54;19927;-79
2022/07/31 09:30:38;;;;;;;;;;;;;;;29.05;32.77;99972.41;1087879;54;19981;-77
2022/07/31 09:31:41;;;;;;;;;;;;;;;29.30;32.22;99965.28;1087181;54;19947;-78
2022/07/31 09:32:44;;;;;;;;;;;;;;;29.47;32.07;99964.28;1087737;54;19953;-77
2022/07/31 09:33:48;;;;;;;;;;;;;;;29.57;31.13;99964.25;1087470;46;21320;-77
2022/07/31 09:34:49;;;;;;;;;;;;;;;29.45;30.73;99960.97;1087531;54;19946;-79
2022/07/31 09:35:54;;;;;;;;;;;;;;;29.62;31.04;99958.78;1087327;54;19947;-78
2022/07/31 09:36:57;;;;;;;;;;;;;;;29.63;31.02;99965.09;1087614;54;19975;-77
2022/07/31 09:38:01;;;;;;;;;;;;;;;29.80;30.18;99951.91;1086924;54;19950;-78
2022/07/31 09:39:11;;;;;;;;;;;;;;;29.24;29.59;99958.13;1087637;54;19942;-80
2022/07/31 09:40:15;;;;;;;;;;;;;;;29.30;30.04;99953.47;1087938;54;20452;-76
2022/07/31 09:41:18;;;;;;;;;;;;;;;28.95;30.19;99958.59;1087903;54;19951;-77
2022/07/31 09:42:22;;;;;;;;;;;;;;;29.22;30.42;99957.56;1087760;54;19994;-78
2022/07/31 09:43:28;;;;;;;;;;;;;;;29.52;30.24;99956.00;1087862;54;19942;-80
2022/07/31 09:44:37;;;;;;;;;;;;;;;29.84;29.95;99952.19;1088235;54;19943;-80
2022/07/31 09:45:40;;;;;;;;;;;;;;;30.10;29.76;99946.66;1088035;54;20070;-80
2022/07/31 09:46:42;;;;;;;;;;;;;;;30.30;29.21;99943.03;1088618;46;19942;-81
2022/07/31 09:47:46;;;;;;;;;;;;;;;30.50;29.40;99947.69;1088312;54;19946;-80
2022/07/31 09:48:51;;;;;;;;;;;;;;;30.35;28.93;99945.81;1088245;54;19946;-79
2022/07/31 09:49:54;;;;;;;;;;;;;;;29.97;28.70;99948.88;1088326;54;19942;-81
2022/07/31 09:50:58;;;;;;;;;;;;;;;29.99;29.32;99937.59;1088224;54;19951;-80
2022/07/31 09:51:59;;;;;;;;;;;;;;;29.97;29.12;99940.63;1088286;54;19973;-79
2022/07/31 09:53:05;;;;;;;;;;;;;;;30.07;29.61;99944.47;1088260;54;19957;-78
2022/07/31 09:54:07;;;;;;;;;;;;;;;30.28;29.07;99946.09;1087633;54;19946;-78
2022/07/31 09:55:13;;;;;;;;;;;;;;;30.32;29.37;99943.59;1087760;54;19946;-81
2022/07/31 09:56:14;;;;;;;;;;;;;;;30.41;29.29;99930.06;1087992;54;20014;-80
2022/07/31 09:57:18;;;;;;;;;;;;;;;30.37;29.10;99942.75;1088168;46;19997;-77
2022/07/31 09:58:20;;;;;;;;;;;;;;;30.16;29.28;99942.78;1088090;54;19957;-78
2022/07/31 09:59:26;;;;;;;;;;;;;;;30.17;29.65;99944.44;1087810;54;19946;-79
2022/07/31 10:00:30;;;;;;;;;;;;;;;29.88;29.20;99931.22;1087943;54;19945;-77
2022/07/31 10:01:35;;;;;;;;;;;;;;;29.92;29.46;99935.09;1088048;54;20001;-77
2022/07/31 10:02:40;;;;;;;;;;;;;;;29.95;29.41;99930.97;1088104;54;19941;-79
2022/07/31 10:03:42;;;;;;;;;;;;;;;29.18;30.01;99937.22;1087988;54;20477;-78
2022/07/31 10:04:46;;;;;;;;;;;;;;;29.18;30.48;99935.28;1088372;54;19989;-78
2022/07/31 10:05:50;;;;;;;;;;;;;;;29.18;30.24;99934.47;1090569;46;19962;-78
2022/07/31 10:06:53;;;;;;;;;;;;;;;29.51;29.98;99935.09;1088860;46;19934;-81
2022/07/31 10:07:59;;;;;;;;;;;;;;;29.36;29.92;99933.97;1088493;54;19947;-80
2022/07/31 10:09:01;;;;;;;;;;;;;;;29.39;30.22;99930.66;1088454;54;19957;-80
2022/07/31 10:10:06;;;;;;;;;;;;;;;29.66;29.90;99929.56;1089014;46;19927;-81
2022/07/31 10:11:08;;;;;;;;;;;;;;;29.84;29.72;99922.69;1088415;54;19950;-80
2022/07/31 10:12:14;;;;;;;;;;;;;;;29.98;29.59;99924.94;1088105;54;19950;-81
2022/07/31 10:13:18;;;;;;;;;;;;;;;30.29;29.16;99925.69;1088247;54;19949;-78
2022/07/31 10:14:25;;;;;;;;;;;;;;;30.29;28.94;99925.69;1088485;47;19942;-80
2022/07/31 10:15:31;;;;;;;;;;;;;;;29.99;29.49;99921.06;1088337;54;19950;-80
2022/07/31 10:16:37;;;;;;;;;;;;;;;30.06;28.87;99920.75;1088391;54;20003;-78
2022/07/31 10:17:42;;;;;;;;;;;;;;;30.28;29.15;99918.53;1088610;46;19957;-80
2022/07/31 10:18:48;;;;;;;;;;;;;;;30.47;29.00;99915.97;1088323;54;19946;-81
2022/07/31 10:19:50;;;;;;;;;;;;;;;30.62;28.67;99917.06;1088565;54;19945;-78
2022/07/31 10:20:56;;;;;;;;;;;;;;;30.61;28.79;99918.97;1091704;46;19989;-80
2022/07/31 10:22:00;;;;;;;;;;;;;;;30.80;28.49;99923.84;1088477;54;19946;-81
2022/07/31 10:23:07;;;;;;;;;;;;;;;30.41;28.48;99914.34;1088494;54;19949;-81
2022/07/31 10:24:09;;;;;;;;;;;;;;;30.44;28.72;99910.19;1088585;47;20498;-78
2022/07/31 10:25:14;;;;;;;;;;;;;;;30.18;28.19;99913.03;1088577;54;19974;-80
2022/07/31 10:26:15;;;;;;;;;;;;;;;29.87;28.62;99913.03;1088306;54;19938;-78
2022/07/31 10:27:19;;;;;;;;;;;;;;;29.73;29.20;99912.78;1088920;46;19938;-77
2022/07/31 10:28:21;;;;;;;;;;;;;;;29.53;29.13;99910.88;1089178;46;19950;-78
2022/07/31 10:29:25;;;;;;;;;;;;;;;29.50;29.36;99911.41;1088112;54;19927;-80
2022/07/31 10:30:31;;;;;;;;;;;;;;;29.41;29.33;99906.44;1087935;46;19946;-79
2022/07/31 10:31:32;;;;;;;;;;;;;;;29.23;29.71;99910.53;1088159;54;20419;-78
2022/07/31 10:32:36;;;;;;;;;;;;;;;29.61;29.26;99904.81;1088488;54;19949;-80
2022/07/31 10:33:38;;;;;;;;;;;;;;;29.42;29.41;99902.59;1088432;54;19946;-78
2022/07/31 10:34:42;;;;;;;;;;;;;;;29.52;29.53;99890.75;1087667;54;19983;-78
2022/07/31 10:35:48;;;;;;;;;;;;;;;29.27;29.72;99892.34;1088245;54;19923;-80
2022/07/31 10:36:52;;;;;;;;;;;;;;;29.48;29.64;99886.91;1088445;54;19931;-78
2022/07/31 10:37:59;;;;;;;;;;;;;;;29.96;28.93;99889.38;1088187;54;19942;-79
2022/07/31 10:39:02;;;;;;;;;;;;;;;30.33;28.40;99882.66;1088177;54;19926;-79
2022/07/31 10:40:10;;;;;;;;;;;;;;;30.19;28.51;99881.63;1088291;54;20006;-76
2022/07/31 10:41:16;;;;;;;;;;;;;;;30.46;28.34;99880.41;1087745;54;19934;-80
2022/07/31 10:42:29;;;;;;;;;;;;;;;30.85;27.83;99881.63;1088378;54;19923;-79
2022/07/31 10:43:35;;;;;;;;;;;;;;;30.62;27.60;99881.22;1088272;54;19951;-79
2022/07/31 10:44:41;;;;;;;;;;;;;;;30.37;27.26;99888.44;1088104;54;19942;-79
2022/07/31 10:45:49;;;;;;;;;;;;;;;30.60;27.14;99887.03;1087578;54;19947;-78
2022/07/31 10:46:53;;;;;;;;;;;;;;;30.50;26.62;99882.31;1087868;54;19981;-79
2022/07/31 10:47:55;;;;;;;;;;;;;;;30.80;26.72;99879.72;1087228;54;20044;-80
2022/07/31 10:48:59;;;;;;;;;;;;;;;30.67;26.36;99883.94;1087654;47;20076;-79
2022/07/31 10:50:01;;;;;;;;;;;;;;;30.39;26.61;99885.41;1093527;39;20376;-80
2022/07/31 10:51:06;;;;;;;;;;;;;;;30.39;26.71;99882.66;1087915;54;19942;-77
2022/07/31 10:52:07;;;;;;;;;;;;;;;30.61;26.50;99883.13;1088093;54;19927;-80
2022/07/31 10:53:11;;;;;;;;;;;;;;;30.75;26.80;99869.53;1088063;54;19950;-80
2022/07/31 10:54:13;;;;;;;;;;;;;;;30.83;26.73;99879.16;1088033;54;19954;-80
2022/07/31 10:55:17;;;;;;;;;;;;;;;30.62;26.52;99868.22;1088011;54;19923;-79
2022/07/31 10:56:18;;;;;;;;;;;;;;;30.49;26.71;99869.66;1087443;54;19951;-79
2022/07/31 10:57:25;;;;;;;;;;;;;;;30.51;26.87;99874.91;1087617;54;19927;-80
2022/07/31 10:58:29;;;;;;;;;;;;;;;30.33;26.75;99862.53;1088039;54;19942;-78
2022/07/31 10:59:30;;;;;;;;;;;;;;;30.33;26.81;99863.34;1087614;54;19926;-78
2022/07/31 11:00:34;;;;;;;;;;;;;;;30.50;27.04;99870.47;1087765;54;19942;-78
2022/07/31 11:01:46;;;;;;;;;;;;;;;30.50;26.69;99856.69;1095739;39;20325;-78
2022/07/31 11:02:50;;;;;;;;;;;;;;;30.29;27.15;99866.97;1087671;54;19994;-79
2022/07/31 11:03:52;;;;;;;;;;;;;;;30.43;27.05;99857.00;1087748;54;20015;-79
2022/07/31 11:04:56;;;;;;;;;;;;;;;30.39;27.00;99860.59;1087163;54;19947;-79
2022/07/31 11:05:58;;;;;;;;;;;;;;;30.37;26.93;99860.84;1090669;39;20439;-78
2022/07/31 11:07:02;;;;;;;;;;;;;;;30.47;26.98;99854.50;1087400;54;19955;-79
2022/07/31 11:08:04;;;;;;;;;;;;;;;30.54;26.63;99848.72;1087786;54;19942;-78
2022/07/31 11:09:07;;;;;;;;;;;;;;;30.77;26.94;99858.25;1087187;54;19950;-77
2022/07/31 11:10:09;;;;;;;;;;;;;;;30.80;26.71;99841.09;1087676;54;20213;-76
2022/07/31 11:11:14;;;;;;;;;;;;;;;30.87;26.74;99847.16;1087690;54;19949;-78
2022/07/31 11:12:18;;;;;;;;;;;;;;;30.71;26.71;99840.06;1087736;54;19950;-78
2022/07/31 11:13:24;;;;;;;;;;;;;;;30.32;26.96;99847.91;1087792;54;19953;-77
2022/07/31 11:14:32;;;;;;;;;;;;;;;30.42;27.17;99836.03;1087889;54;19946;-78
2022/07/31 11:15:36;;;;;;;;;;;;;;;30.38;27.13;99843.22;1087636;54;19942;-77
2022/07/31 11:16:51;;;;;;;;;;;;;;;30.55;26.92;99844.84;1087944;54;19958;-78
2022/07/31 11:17:55;;;;;;;;;;;;;;;30.78;26.78;99843.34;1087956;54;19943;-78
2022/07/31 11:18:57;;;;;;;;;;;;;;;30.76;26.59;99842.78;1087873;54;19962;-78
2022/07/31 11:20:01;;;;;;;;;;;;;;;30.85;26.65;99841.09;1087857;54;19927;-77
2022/07/31 11:21:03;;;;;;;;;;;;;;;30.55;26.89;99833.81;1087678;54;19938;-78
2022/07/31 11:22:11;;;;;;;;;;;;;;;30.40;26.96;99842.94;1087425;54;19942;-77
2022/07/31 11:23:14;;;;;;;;;;;;;;;30.23;27.27;99838.59;1086911;54;19974;-78
2022/07/31 11:24:19;;;;;;;;;;;;;;;30.37;27.15;99849.03;1087226;54;19966;-78
2022/07/31 11:25:21;;;;;;;;;;;;;;;30.39;26.99;99835.78;1089912;39;20494;-78
2022/07/31 11:26:24;;;;;;;;;;;;;;;30.30;27.40;99836.38;1088230;47;19950;-76
2022/07/31 11:27:29;;;;;;;;;;;;;;;30.44;27.13;99830.22;1088963;47;19950;-77
2022/07/31 11:28:33;;;;;;;;;;;;;;;30.35;27.18;99836.34;1087787;54;19954;-77
2022/07/31 11:29:35;;;;;;;;;;;;;;;30.17;27.39;99829.53;1088719;39;20332;-78
2022/07/31 11:30:48;;;;;;;;;;;;;;;30.30;27.40;99830.88;1087295;54;19927;-78
2022/07/31 11:31:52;;;;;;;;;;;;;;;30.40;27.31;99823.66;1087566;54;19951;-77
2022/07/31 11:32:56;;;;;;;;;;;;;;;30.51;26.86;99822.50;1088954;47;19950;-77
2022/07/31 11:34:02;;;;;;;;;;;;;;;30.70;26.82;99822.69;1087761;54;19975;-79
2022/07/31 11:35:06;;;;;;;;;;;;;;;30.82;26.91;99819.56;1087710;54;19973;-79
2022/07/31 11:36:08;;;;;;;;;;;;;;;30.95;26.98;99818.94;1087749;54;20499;-79
2022/07/31 11:37:15;;;;;;;;;;;;;;;30.98;26.53;99813.97;1089940;31;20604;-77
2022/07/31 11:38:16;;;;;;;;;;;;;;;30.94;26.87;99825.56;1087673;54;19969;-79
2022/07/31 11:39:22;;;;;;;;;;;;;;;30.92;26.27;99816.75;1087470;47;20511;-79
2022/07/31 11:40:24;;;;;;;;;;;;;;;30.61;26.71;99818.88;1087119;54;20442;-77
2022/07/31 11:41:29;;;;;;;;;;;;;;;30.64;26.83;99819.13;1087280;54;19966;-77
2022/07/31 11:42:30;;;;;;;;;;;;;;;30.72;26.77;99816.88;1087591;47;19947;-78
2022/07/31 11:43:36;;;;;;;;;;;;;;;30.73;27.08;99818.53;1087914;54;19965;-77
2022/07/31 11:44:37;;;;;;;;;;;;;;;30.87;26.63;99814.03;1087757;54;20427;-79
2022/07/31 11:45:47;;;;;;;;;;;;;;;30.76;27.15;99816.03;1087734;54;19942;-77
2022/07/31 11:46:48;;;;;;;;;;;;;;;30.78;26.98;99815.75;1088004;54;19970;-78
2022/07/31 11:47:54;;;;;;;;;;;;;;;30.78;27.03;99808.28;1088384;39;20374;-79
2022/07/31 11:48:58;;;;;;;;;;;;;;;30.78;26.69;99804.72;1088175;47;19950;-78
2022/07/31 11:50:00;;;;;;;;;;;;;;;30.77;26.92;99809.41;1088129;54;19942;-79
2022/07/31 11:51:04;;;;;;;;;;;;;;;30.88;26.97;99801.91;1087837;54;19990;-79
2022/07/31 11:52:07;;;;;;;;;;;;;;;30.86;26.92;99795.84;1087668;54;19954;-83
2022/07/31 11:53:10;;;;;;;;;;;;;;;31.00;26.79;99798.78;1087649;54;19947;-79
2022/07/31 11:54:23;;;;;;;;;;;;;;;30.95;26.73;99802.41;1090655;46;19969;-79
2022/07/31 11:55:24;;;;;;;;;;;;;;;30.95;26.71;99798.78;1087840;54;19955;-79
2022/07/31 11:56:28;;;;;;;;;;;;;;;31.09;26.54;99796.19;1087730;54;19953;-79
2022/07/31 11:57:30;;;;;;;;;;;;;;;31.05;26.80;99787.69;1088938;47;19946;-79
2022/07/31 11:58:34;;;;;;;;;;;;;;;30.94;26.76;99791.63;1087499;54;19990;-78
2022/07/31 11:59:37;;;;;;;;;;;;;;;30.99;26.60;99785.25;1088173;39;20967;-80
2022/07/31 12:00:41;;;;;;;;;;;;;;;30.79;26.92;99776.03;1087747;54;19946;-78
2022/07/31 12:01:42;;;;;;;;;;;;;;;30.84;26.89;99787.00;1088008;54;19971;-78
2022/07/31 12:02:46;;;;;;;;;;;;;;;30.91;26.95;99787.50;1087632;54;20417;-78
2022/07/31 12:03:53;;;;;;;;;;;;;;;30.98;26.69;99787.19;1088093;54;19942;-80